Time;durP1;ratioP1;P1;durP2;ratioP2;P2;SDS_P1;SDS_P2;PMS_P1;PMS_P2;Temp;Humidity;BMP_temperature;BMP_pressure;BME280_temperature;BME280_humidity;BME280_pressure;Samples;Min_cycle;Max_cycle;Signal;HPM_P1;HPM_P2
2022/06/24 00:00:28;;;;;;;;;;;;;;;22.10;47.63;95035.72;2041846;29;1934;-59
2022/06/24 00:01:31;;;;;;;;;;;;;;;21.98;48.15;95037.50;2041945;29;1667;-59
2022/06/24 00:02:33;;;;;;;;;;;;;;;22.01;48.19;95041.59;2047240;29;1649;-58
2022/06/24 00:03:36;;;;;;;;;;;;;;;22.06;48.00;95039.91;2042208;29;1512;-60
2022/06/24 00:04:38;;;;;;;;;;;;;;;22.07;47.91;95036.19;2041849;29;1578;-57
2022/06/24 00:05:41;;;;;;;;;;;;;;;22.09;48.02;95042.13;2041579;29;1156;-61
2022/06/24 00:06:43;;;;;;;;;;;;;;;22.08;48.41;95042.34;2042193;29;1489;-60
2022/06/24 00:07:47;;;;;;;;;;;;;;;21.96;49.00;95034.22;2044187;28;1685;-60
2022/06/24 00:08:53;;;;;;;;;;;;;;;21.97;49.10;95041.22;2042600;29;1700;-61
2022/06/24 00:09:55;;;;;;;;;;;;;;;21.91;49.73;95042.06;2034995;29;1188;-52
2022/06/24 00:11:10;;;;;;;;;;;;;;;21.90;49.67;95043.91;2040208;29;1648;-55
2022/06/24 00:12:15;;;;;;;;;;;;;;;22.07;49.52;95043.38;2041673;29;1504;-59
2022/06/24 00:13:16;;;;;;;;;;;;;;;22.09;49.36;95044.81;2041623;29;1118;-59
2022/06/24 00:14:19;;;;;;;;;;;;;;;22.19;49.36;95040.81;2041626;29;1534;-59
2022/06/24 00:15:25;;;;;;;;;;;;;;;22.20;49.31;95045.13;2042108;29;1054;-59
2022/06/24 00:16:27;;;;;;;;;;;;;;;22.16;49.13;95049.28;2041808;29;1090;-59
2022/06/24 00:17:32;;;;;;;;;;;;;;;22.14;49.46;95049.50;2042030;29;1101;-58
2022/06/24 00:18:33;;;;;;;;;;;;;;;21.99;49.70;95049.81;2040777;29;1533;-53
2022/06/24 00:19:37;;;;;;;;;;;;;;;21.94;49.60;95051.50;2041608;29;1201;-59
2022/06/24 00:20:41;;;;;;;;;;;;;;;22.03;49.45;95052.91;2037727;29;1915;-55
2022/06/24 00:21:56;;;;;;;;;;;;;;;21.91;49.87;95050.09;2037137;29;1170;-59
2022/06/24 00:22:59;;;;;;;;;;;;;;;21.98;49.85;95052.75;2041768;29;1066;-59
2022/06/24 00:24:01;;;;;;;;;;;;;;;22.05;49.85;95053.47;2041994;29;1094;-59
2022/06/24 00:25:08;;;;;;;;;;;;;;;22.12;49.73;95063.09;2041367;29;1473;-59
2022/06/24 00:26:11;;;;;;;;;;;;;;;22.20;49.45;95066.53;2041628;29;1528;-62
2022/06/24 00:27:18;;;;;;;;;;;;;;;22.24;49.42;95065.06;2041451;29;1599;-60
2022/06/24 00:28:24;;;;;;;;;;;;;;;22.26;49.46;95063.78;2048328;29;1704;-60
2022/06/24 00:29:27;;;;;;;;;;;;;;;22.23;49.09;95055.41;2041254;29;1590;-59
2022/06/24 00:30:35;;;;;;;;;;;;;;;22.04;49.22;95063.38;2041287;29;1515;-60
2022/06/24 00:31:37;;;;;;;;;;;;;;;21.98;49.72;95058.91;2041570;29;1508;-59
2022/06/24 00:32:41;;;;;;;;;;;;;;;21.99;49.55;95065.06;2034311;29;1815;-61
2022/06/24 00:33:47;;;;;;;;;;;;;;;21.99;49.99;95067.75;2041162;29;1489;-58
2022/06/24 00:35:01;;;;;;;;;;;;;;;22.04;49.68;95068.72;2041324;29;1154;-61
2022/06/24 00:36:06;;;;;;;;;;;;;;;22.02;49.76;95067.31;2041229;29;1687;-59
2022/06/24 00:37:22;;;;;;;;;;;;;;;21.96;49.62;95070.84;2040937;29;1149;-60
2022/06/24 00:38:26;;;;;;;;;;;;;;;21.86;50.12;95066.78;2048501;29;1820;-61
2022/06/24 00:39:33;;;;;;;;;;;;;;;21.81;50.06;95063.94;2042069;28;1473;-61
2022/06/24 00:40:36;;;;;;;;;;;;;;;21.78;50.37;95077.75;2041339;29;1561;-53
2022/06/24 00:41:40;;;;;;;;;;;;;;;21.74;50.56;95073.91;2041654;29;1992;-56
2022/06/24 00:42:45;;;;;;;;;;;;;;;21.74;50.39;95079.25;2042222;28;1537;-59
2022/06/24 00:43:50;;;;;;;;;;;;;;;21.78;50.37;95071.59;2037072;29;1520;-59
2022/06/24 00:44:57;;;;;;;;;;;;;;;21.79;50.33;95076.72;2037108;29;1553;-55
2022/06/24 00:46:05;;;;;;;;;;;;;;;21.79;50.18;95070.56;2034054;29;1126;-60
2022/06/24 00:47:08;;;;;;;;;;;;;;;21.80;50.29;95078.38;2037459;29;1560;-57
2022/06/24 00:48:14;;;;;;;;;;;;;;;21.81;49.94;95069.28;2046269;29;1660;-57
2022/06/24 00:49:23;;;;;;;;;;;;;;;21.74;50.08;95065.88;2043847;28;1679;-58
2022/06/24 00:50:27;;;;;;;;;;;;;;;21.70;50.15;95070.00;2041297;29;1648;-58
2022/06/24 00:51:31;;;;;;;;;;;;;;;21.74;50.09;95063.19;2049576;28;1264;-58
2022/06/24 00:52:37;;;;;;;;;;;;;;;21.79;50.18;95067.88;2049348;28;2149;-71
2022/06/24 00:53:41;;;;;;;;;;;;;;;21.81;50.03;95065.81;2049836;28;1093;-58
2022/06/24 00:54:43;;;;;;;;;;;;;;;21.75;50.23;95064.81;2039873;28;1668;-55
2022/06/24 00:55:47;;;;;;;;;;;;;;;21.67;49.96;95062.41;2040192;28;1641;-54
2022/06/24 00:56:53;;;;;;;;;;;;;;;21.65;50.29;95069.81;2049445;28;1102;-59
2022/06/24 00:57:56;;;;;;;;;;;;;;;21.62;50.15;95073.75;2049597;28;1117;-60
2022/06/24 00:59:00;;;;;;;;;;;;;;;21.62;50.41;95065.72;2043919;28;1489;-60
2022/06/24 01:00:03;;;;;;;;;;;;;;;21.65;50.22;95065.31;2041432;29;1045;-61
2022/06/24 01:01:04;;;;;;;;;;;;;;;21.67;50.29;95068.56;2041660;29;1652;-57
2022/06/24 01:02:08;;;;;;;;;;;;;;;21.65;49.93;95070.66;2041854;28;1898;-61
2022/06/24 01:03:11;;;;;;;;;;;;;;;21.56;50.57;95071.94;2041359;29;1551;-60
2022/06/24 01:04:14;;;;;;;;;;;;;;;21.59;50.63;95070.69;2041577;29;1152;-60
2022/06/24 01:05:16;;;;;;;;;;;;;;;21.61;50.38;95073.97;2042821;29;1767;-61
2022/06/24 01:06:19;;;;;;;;;;;;;;;21.68;50.40;95075.59;2037229;28;1642;-60
2022/06/24 01:07:21;;;;;;;;;;;;;;;21.74;50.09;95078.41;2036576;29;1693;-60
2022/06/24 01:08:24;;;;;;;;;;;;;;;21.64;49.93;95071.69;2041765;29;1047;-68
2022/06/24 01:09:26;;;;;;;;;;;;;;;21.62;49.51;95071.06;2040939;29;1544;-60
2022/06/24 01:10:28;;;;;;;;;;;;;;;21.59;49.34;95071.50;2041751;29;1708;-60
2022/06/24 01:11:33;;;;;;;;;;;;;;;21.52;49.15;95073.44;2041766;29;1071;-61
2022/06/24 01:12:38;;;;;;;;;;;;;;;21.48;48.82;95077.56;2040766;29;2079;-60
2022/06/24 01:13:40;;;;;;;;;;;;;;;21.49;49.02;95081.88;2041641;29;1042;-73
2022/06/24 01:14:42;;;;;;;;;;;;;;;21.49;49.00;95075.72;2041299;29;1558;-62
2022/06/24 01:15:45;;;;;;;;;;;;;;;21.41;48.78;95077.59;2043745;29;1718;-59
2022/06/24 01:16:48;;;;;;;;;;;;;;;21.40;49.15;95078.66;2049435;28;994;-59
2022/06/24 01:17:51;;;;;;;;;;;;;;;21.49;48.80;95079.22;2044473;28;1674;-54
2022/06/24 01:18:53;;;;;;;;;;;;;;;;;;2038015;29;1528;-59
2022/06/24 01:19:55;;;;;;;;;;;;;;;21.49;48.55;95081.88;2041658;28;1908;-59
2022/06/24 01:20:58;;;;;;;;;;;;;;;21.53;48.37;95083.06;2041472;29;1553;-51
2022/06/24 01:22:01;;;;;;;;;;;;;;;21.51;48.57;95079.78;2033539;29;1907;-59
2022/06/24 01:23:04;;;;;;;;;;;;;;;21.54;48.57;95079.38;2033823;29;1078;-60
2022/06/24 01:24:07;;;;;;;;;;;;;;;21.52;48.44;95078.78;2035597;29;1536;-59
2022/06/24 01:25:11;;;;;;;;;;;;;;;21.47;48.32;95078.59;2041836;29;1082;-59
2022/06/24 01:26:12;;;;;;;;;;;;;;;21.50;48.23;95078.16;2047477;29;1662;-60
2022/06/24 01:27:15;;;;;;;;;;;;;;;21.54;48.27;95079.38;2049162;28;1087;-59
2022/06/24 01:28:17;;;;;;;;;;;;;;;;;;2049282;28;1113;-55
2022/06/24 01:29:20;;;;;;;;;;;;;;;21.52;48.39;95081.44;2039771;28;1575;-59
2022/06/24 01:30:21;;;;;;;;;;;;;;;21.50;48.14;95072.81;2038565;29;1153;-58
2022/06/24 01:31:24;;;;;;;;;;;;;;;21.44;48.10;95073.69;2041069;29;1989;-58
2022/06/24 01:32:28;;;;;;;;;;;;;;;21.41;48.11;95079.47;2041591;29;1670;-59
2022/06/24 01:33:30;;;;;;;;;;;;;;;21.41;48.53;95072.25;2041030;29;1482;-60
2022/06/24 01:34:33;;;;;;;;;;;;;;;21.47;48.50;95073.25;2040269;29;2092;-58
2022/06/24 01:35:35;;;;;;;;;;;;;;;21.50;48.06;95072.81;2042360;29;1503;-59
2022/06/24 01:36:38;;;;;;;;;;;;;;;21.54;47.98;95070.53;2046083;28;1488;-58
2022/06/24 01:37:41;;;;;;;;;;;;;;;21.55;48.10;95073.00;2041588;29;1586;-46
2022/06/24 01:38:44;;;;;;;;;;;;;;;21.52;48.13;95076.09;2039629;29;1208;-48
2022/06/24 01:39:46;;;;;;;;;;;;;;;21.58;48.17;95079.75;2040302;29;1501;-50
2022/06/24 01:40:48;;;;;;;;;;;;;;;21.64;48.21;95074.38;2033144;29;1486;-54
2022/06/24 01:41:51;;;;;;;;;;;;;;;21.68;48.11;95072.91;2040778;29;1976;-55
2022/06/24 01:42:54;;;;;;;;;;;;;;;21.63;48.14;95069.25;2041728;29;1496;-50
2022/06/24 01:43:55;;;;;;;;;;;;;;;21.57;48.54;95070.09;2042422;29;1537;-51
2022/06/24 01:44:58;;;;;;;;;;;;;;;21.52;48.20;95068.09;2041939;29;1553;-59
2022/06/24 01:46:00;;;;;;;;;;;;;;;21.49;48.11;95067.69;2039815;29;2060;-58
2022/06/24 01:47:03;;;;;;;;;;;;;;;21.48;48.32;95069.53;2041374;29;1086;-51
2022/06/24 01:48:05;;;;;;;;;;;;;;;21.43;48.53;95072.06;2045410;29;1989;-51
2022/06/24 01:49:08;;;;;;;;;;;;;;;21.39;48.36;95070.84;2048793;28;1706;-49
2022/06/24 01:50:10;;;;;;;;;;;;;;;21.38;48.25;95071.88;2049335;28;1170;-53
2022/06/24 01:51:14;;;;;;;;;;;;;;;21.43;48.72;95066.72;2044243;28;1647;-47
2022/06/24 01:52:16;;;;;;;;;;;;;;;21.48;48.51;95058.84;2032004;29;1695;-51
2022/06/24 01:53:20;;;;;;;;;;;;;;;21.51;48.50;95062.94;2040879;29;1548;-51
2022/06/24 01:54:23;;;;;;;;;;;;;;;21.52;48.69;95065.41;2041042;29;1490;-46
2022/06/24 01:55:26;;;;;;;;;;;;;;;21.42;48.75;95060.50;2040229;29;1629;-49
2022/06/24 01:56:28;;;;;;;;;;;;;;;21.42;48.68;95065.06;2041070;29;1285;-49
2022/06/24 01:57:31;;;;;;;;;;;;;;;21.38;48.47;95063.84;2041087;29;1447;-48
2022/06/24 01:58:32;;;;;;;;;;;;;;;21.35;48.53;95065.09;2041111;29;1201;-51
2022/06/24 01:59:35;;;;;;;;;;;;;;;21.35;48.73;95073.13;2041597;29;1073;-50
2022/06/24 02:00:37;;;;;;;;;;;;;;;21.38;48.52;95058.50;2041423;29;1664;-55
2022/06/24 02:01:40;;;;;;;;;;;;;;;21.41;48.74;95061.56;2042190;29;1668;-49
2022/06/24 02:02:42;;;;;;;;;;;;;;;21.42;48.61;95049.81;2048733;28;2001;-48
2022/06/24 02:03:46;;;;;;;;;;;;;;;21.36;48.39;95049.88;2033797;28;1528;-50
2022/06/24 02:04:48;;;;;;;;;;;;;;;21.38;48.52;95045.16;2044562;29;1542;-51
2022/06/24 02:05:52;;;;;;;;;;;;;;;21.40;48.66;95038.56;2041558;29;1101;-49
2022/06/24 02:06:54;;;;;;;;;;;;;;;21.39;48.69;95038.75;2041464;29;1020;-48
2022/06/24 02:07:57;;;;;;;;;;;;;;;21.35;48.48;95037.56;2041389;29;1032;-49
2022/06/24 02:09:00;;;;;;;;;;;;;;;21.31;48.65;95031.00;2040831;29;1464;-48
2022/06/24 02:14:06;;;;;;;;;;;;;;;21.32;48.49;95029.97;2037162;29;1607;-54
2022/06/24 02:15:08;;;;;;;;;;;;;;;21.26;48.55;95026.31;2035488;29;1089;-48
2022/06/24 02:16:11;;;;;;;;;;;;;;;21.25;48.61;95021.16;2042748;29;1254;-49
2022/06/24 02:17:13;;;;;;;;;;;;;;;21.30;48.79;95024.03;2041732;29;1499;-45
2022/06/24 02:18:16;;;;;;;;;;;;;;;21.29;48.82;95027.75;2042152;29;1551;-50
2022/06/24 02:19:19;;;;;;;;;;;;;;;21.35;48.76;95032.22;2042591;29;1105;-48
2022/06/24 02:20:21;;;;;;;;;;;;;;;21.37;48.68;95040.81;2042937;29;1019;-55
2022/06/24 02:21:24;;;;;;;;;;;;;;;21.33;48.79;95044.97;2044439;29;1552;-48
2022/06/24 02:22:26;;;;;;;;;;;;;;;21.31;48.97;95047.03;2042867;28;1910;-49
2022/06/24 02:23:30;;;;;;;;;;;;;;;21.31;49.10;95047.03;2042947;29;1007;-48
2022/06/24 02:24:34;;;;;;;;;;;;;;;21.33;48.99;95050.31;2042326;29;1485;-51
2022/06/24 02:25:36;;;;;;;;;;;;;;;21.31;49.10;95049.69;2038267;29;1356;-62
2022/06/24 02:26:39;;;;;;;;;;;;;;;21.29;49.02;95049.94;2037646;29;1267;-52
2022/06/24 02:27:45;;;;;;;;;;;;;;;21.23;48.98;95040.91;2042718;29;1473;-47
2022/06/24 02:28:48;;;;;;;;;;;;;;;21.24;49.13;95047.06;2042510;29;1114;-49
2022/06/24 02:29:50;;;;;;;;;;;;;;;21.22;49.07;95041.94;2042182;29;1587;-51
2022/06/24 02:30:54;;;;;;;;;;;;;;;21.23;49.04;95040.09;2042756;28;2220;-71
2022/06/24 02:31:55;;;;;;;;;;;;;;;21.21;49.11;95042.97;2044554;29;1615;-47
2022/06/24 02:32:58;;;;;;;;;;;;;;;21.22;49.24;95041.13;2042312;29;1513;-55
2022/06/24 02:34:00;;;;;;;;;;;;;;;21.19;49.29;95049.56;2042276;29;1580;-49
2022/06/24 02:35:03;;;;;;;;;;;;;;;21.22;48.72;95055.28;2041544;29;1613;-48
2022/06/24 02:36:05;;;;;;;;;;;;;;;21.17;49.08;95052.47;2042509;29;1137;-51
2022/06/24 02:37:08;;;;;;;;;;;;;;;21.23;48.98;95050.78;2038466;29;1328;-48
2022/06/24 02:38:10;;;;;;;;;;;;;;;21.21;48.78;95053.66;2037896;29;1261;-50
2022/06/24 02:39:12;;;;;;;;;;;;;;;21.21;48.73;95058.19;2042367;29;1556;-48
2022/06/24 02:41:37;;;;;;;;;;;;;;;21.30;48.93;95058.75;2047542;29;1617;-48
2022/06/24 02:42:39;;;;;;;;;;;;;;;21.46;48.40;95060.94;2043516;28;2089;-46
2022/06/24 02:43:42;;;;;;;;;;;;;;;21.49;48.40;95051.66;2045913;29;1907;-49
2022/06/24 02:44:44;;;;;;;;;;;;;;;21.49;48.20;95057.81;2041528;28;1524;-46
2022/06/24 02:45:47;;;;;;;;;;;;;;;21.48;48.26;95056.16;2043610;29;1620;-47
2022/06/24 02:46:49;;;;;;;;;;;;;;;21.46;47.88;95060.94;2042436;29;2029;-46
2022/06/24 02:47:52;;;;;;;;;;;;;;;21.32;47.88;95064.72;2041394;29;1957;-47
2022/06/24 02:48:55;;;;;;;;;;;;;;;21.29;48.04;95065.97;2035046;28;1173;-50
2022/06/24 02:49:57;;;;;;;;;;;;;;;21.34;48.18;95066.16;2041504;29;1033;-45
2022/06/24 02:51:00;;;;;;;;;;;;;;;21.44;48.34;95060.31;2042241;29;1078;-47
2022/06/24 02:52:03;;;;;;;;;;;;;;;21.50;47.92;95059.44;2043538;29;1678;-58
2022/06/24 02:53:05;;;;;;;;;;;;;;;21.51;47.84;95055.72;2042446;29;1041;-47
2022/06/24 02:54:08;;;;;;;;;;;;;;;21.34;47.54;95062.63;2042781;29;1548;-48
2022/06/24 02:55:10;;;;;;;;;;;;;;;21.27;48.10;95051.19;2043610;28;1446;-46
2022/06/24 02:56:15;;;;;;;;;;;;;;;21.39;47.99;95049.44;2041987;29;1421;-48
2022/06/24 02:57:17;;;;;;;;;;;;;;;21.53;48.11;95056.34;2042645;29;1267;-58
2022/06/24 02:58:20;;;;;;;;;;;;;;;21.64;47.65;95047.63;2042348;29;1490;-46
2022/06/24 02:59:22;;;;;;;;;;;;;;;21.79;47.50;95051.81;2042274;29;1628;-47
2022/06/24 03:00:24;;;;;;;;;;;;;;;21.76;47.45;95045.06;2032840;29;1516;-49
2022/06/24 03:01:27;;;;;;;;;;;;;;;21.77;47.07;95043.19;2043044;29;1641;-49
2022/06/24 03:02:29;;;;;;;;;;;;;;;21.71;47.20;95049.41;2040965;29;1648;-51
2022/06/24 03:03:32;;;;;;;;;;;;;;;21.59;47.40;95044.78;2042130;28;1981;-52
2022/06/24 03:04:34;;;;;;;;;;;;;;;21.58;47.25;95040.47;2037182;29;1664;-48
2022/06/24 03:05:38;;;;;;;;;;;;;;;21.62;47.27;95048.88;2034324;29;966;-51
2022/06/24 03:06:39;;;;;;;;;;;;;;;21.57;47.09;95041.53;2034532;29;1033;-47
2022/06/24 03:07:42;;;;;;;;;;;;;;;21.45;47.33;95043.22;2034557;29;1042;-50
2022/06/24 03:08:45;;;;;;;;;;;;;;;21.38;47.59;95050.50;2038442;29;1493;-52
2022/06/24 03:09:47;;;;;;;;;;;;;;;21.31;47.58;95050.50;2046635;28;1700;-50
2022/06/24 03:10:50;;;;;;;;;;;;;;;21.38;47.72;95055.84;2049805;28;1165;-48
2022/06/24 03:11:53;;;;;;;;;;;;;;;21.47;47.98;95059.06;2039577;28;1384;-50
2022/06/24 03:12:56;;;;;;;;;;;;;;;21.58;47.68;95059.19;2041580;29;1552;-49
2022/06/24 03:13:59;;;;;;;;;;;;;;;21.55;47.96;95062.31;2042413;29;1098;-49
2022/06/24 03:15:01;;;;;;;;;;;;;;;21.37;48.42;95048.84;2042194;29;1173;-48
2022/06/24 03:16:04;;;;;;;;;;;;;;;21.23;49.06;95054.28;2042216;29;1074;-52
2022/06/24 03:17:06;;;;;;;;;;;;;;;20.96;49.82;95048.22;2044723;29;1714;-51
2022/06/24 03:18:09;;;;;;;;;;;;;;;20.89;49.92;95050.13;2042213;28;1570;-46
2022/06/24 03:19:10;;;;;;;;;;;;;;;20.95;49.79;95065.28;2042087;29;1472;-51
2022/06/24 03:20:14;;;;;;;;;;;;;;;20.95;49.94;95061.81;2042544;29;1577;-54
2022/06/24 03:21:17;;;;;;;;;;;;;;;21.09;49.74;95058.03;2042137;29;1495;-51
2022/06/24 03:22:19;;;;;;;;;;;;;;;21.12;49.63;95059.47;2038225;29;1549;-48
2022/06/24 03:23:22;;;;;;;;;;;;;;;21.08;49.41;95053.69;2036796;29;1445;-49
2022/06/24 03:24:23;;;;;;;;;;;;;;;20.99;49.92;95065.69;2041728;29;2333;-51
2022/06/24 03:25:26;;;;;;;;;;;;;;;20.98;49.63;95053.34;2041854;29;1989;-49
2022/06/24 03:26:28;;;;;;;;;;;;;;;20.92;49.51;95064.91;2042239;29;1010;-48
2022/06/24 03:27:32;;;;;;;;;;;;;;;20.85;49.69;95058.75;2049406;29;1258;-48
2022/06/24 03:28:35;;;;;;;;;;;;;;;20.90;49.82;95066.97;2046069;28;1470;-50
2022/06/24 03:29:37;;;;;;;;;;;;;;;20.87;49.48;95062.03;2041865;29;1520;-53
2022/06/24 03:30:40;;;;;;;;;;;;;;;21.01;49.34;95061.75;2042494;29;1640;-50
2022/06/24 03:31:42;;;;;;;;;;;;;;;21.12;48.99;95064.81;2043927;28;1639;-46
2022/06/24 03:32:45;;;;;;;;;;;;;;;20.91;49.21;95057.91;2042699;28;1698;-50
2022/06/24 03:33:47;;;;;;;;;;;;;;;20.69;49.81;95062.72;2029724;29;1292;-50
2022/06/24 03:34:50;;;;;;;;;;;;;;;20.94;49.38;95061.00;2034359;29;1435;-49
2022/06/24 03:35:51;;;;;;;;;;;;;;;20.87;49.54;95067.38;2046686;29;1705;-50
2022/06/24 03:36:54;;;;;;;;;;;;;;;20.81;49.44;95069.03;2044237;28;1629;-71
2022/06/24 03:37:56;;;;;;;;;;;;;;;20.96;49.50;95071.44;2045551;29;1628;-48
2022/06/24 03:38:59;;;;;;;;;;;;;;;21.03;48.84;95069.56;2049421;28;1498;-47
2022/06/24 03:40:01;;;;;;;;;;;;;;;21.08;48.82;95080.41;2042708;28;1236;-46
2022/06/24 03:41:04;;;;;;;;;;;;;;;21.10;48.84;95073.00;2042165;29;1106;-49
2022/06/24 03:42:06;;;;;;;;;;;;;;;21.07;48.87;95078.78;2042036;29;1120;-50
2022/06/24 03:43:10;;;;;;;;;;;;;;;21.19;48.69;95076.28;2042106;29;1081;-47
2022/06/24 03:44:12;;;;;;;;;;;;;;;21.30;48.53;95077.47;2041832;29;1981;-48
2022/06/24 03:45:15;;;;;;;;;;;;;;;21.36;48.34;95076.59;2037734;29;1053;-48
2022/06/24 03:46:16;;;;;;;;;;;;;;;21.34;48.40;95071.50;2037326;29;1187;-48
2022/06/24 03:47:19;;;;;;;;;;;;;;;21.39;48.26;95076.19;2041618;29;1973;-51
2022/06/24 03:48:21;;;;;;;;;;;;;;;21.41;48.28;95079.47;2041884;29;1122;-48
2022/06/24 03:49:24;;;;;;;;;;;;;;;21.53;48.32;95074.25;2047170;29;1656;-45
2022/06/24 03:50:26;;;;;;;;;;;;;;;21.82;47.57;95064.75;2048466;28;1699;-45
2022/06/24 03:51:29;;;;;;;;;;;;;;;21.70;47.74;95055.81;2043350;28;1089;-45
2022/06/24 03:52:32;;;;;;;;;;;;;;;21.58;48.02;95064.53;2041561;29;1476;-54
2022/06/24 03:53:34;;;;;;;;;;;;;;;21.58;48.43;95053.03;2041929;29;1153;-51
2022/06/24 03:54:37;;;;;;;;;;;;;;;21.61;48.39;95064.09;2040150;29;1659;-52
2022/06/24 03:55:39;;;;;;;;;;;;;;;21.61;48.39;95064.09;2042607;29;1479;-47
2022/06/24 03:56:42;;;;;;;;;;;;;;;21.62;48.25;95064.91;2036953;29;1486;-51
2022/06/24 03:57:45;;;;;;;;;;;;;;;21.77;48.07;95061.91;2037528;29;1560;-51
2022/06/24 03:58:50;;;;;;;;;;;;;;;21.87;47.80;95062.25;2042133;29;1090;-60
2022/06/24 03:59:51;;;;;;;;;;;;;;;22.17;47.46;95067.81;2041394;29;1460;-49
2022/06/24 04:01:00;;;;;;;;;;;;;;;22.25;48.25;95062.16;2048379;29;1533;-47
2022/06/24 04:02:02;;;;;;;;;;;;;;;22.13;47.65;95067.41;2041229;29;1715;-55
2022/06/24 04:03:05;;;;;;;;;;;;;;;21.74;48.91;95075.72;2041298;29;1456;-53
2022/06/24 04:04:07;;;;;;;;;;;;;;;21.49;49.19;95070.38;2037266;29;1999;-50
2022/06/24 04:05:10;;;;;;;;;;;;;;;21.55;49.66;95069.50;2043135;29;1294;-58
2022/06/24 04:06:12;;;;;;;;;;;;;;;21.82;49.44;95064.75;2045555;29;1654;-49
2022/06/24 04:07:15;;;;;;;;;;;;;;;21.74;49.22;95057.84;2040870;29;1114;-51
2022/06/24 04:08:17;;;;;;;;;;;;;;;21.58;49.76;95059.19;2032890;29;1404;-50
2022/06/24 04:09:19;;;;;;;;;;;;;;;21.36;49.54;95060.56;2039949;29;1196;-50
2022/06/24 04:10:21;;;;;;;;;;;;;;;21.22;49.97;95057.97;2039728;29;1170;-56
2022/06/24 04:11:24;;;;;;;;;;;;;;;21.44;50.06;95055.78;2039669;29;1502;-50
2022/06/24 04:12:26;;;;;;;;;;;;;;;21.56;49.73;95050.56;2040645;29;1939;-50
2022/06/24 04:13:29;;;;;;;;;;;;;;;21.52;49.43;95057.38;2040319;29;1404;-48
2022/06/24 04:15:55;;;;;;;;;;;;;;;21.60;49.95;95058.97;2040477;29;1819;-50
2022/06/24 04:16:57;;;;;;;;;;;;;;;21.65;49.78;95072.50;2039554;29;1735;-53
2022/06/24 04:18:00;;;;;;;;;;;;;;;21.68;49.82;95059.53;2040125;29;1444;-49
2022/06/24 04:19:02;;;;;;;;;;;;;;;21.75;49.73;95064.00;2036296;29;1379;-50
2022/06/24 04:20:05;;;;;;;;;;;;;;;21.80;50.04;95061.50;2034397;29;1494;-51
2022/06/24 04:21:10;;;;;;;;;;;;;;;21.83;50.04;95061.06;2042321;29;2030;-49
2022/06/24 04:22:13;;;;;;;;;;;;;;;21.92;49.66;95069.63;2041958;29;1469;-49
2022/06/24 04:23:15;;;;;;;;;;;;;;;22.01;49.26;95063.81;2042059;28;1565;-48
2022/06/24 04:24:18;;;;;;;;;;;;;;;22.03;49.31;95060.94;2040692;29;1993;-49
2022/06/24 04:25:20;;;;;;;;;;;;;;;22.02;49.50;95070.78;2041061;29;1080;-51
2022/06/24 04:26:22;;;;;;;;;;;;;;;21.97;49.82;95073.31;2041378;29;1411;-50
2022/06/24 04:27:24;;;;;;;;;;;;;;;21.97;49.47;95077.84;2040978;29;1129;-51
2022/06/24 04:28:27;;;;;;;;;;;;;;;21.98;49.54;95079.50;2041004;29;1097;-51
2022/06/24 04:29:29;;;;;;;;;;;;;;;22.05;49.44;95074.88;2040767;29;1041;-51
2022/06/24 04:30:33;;;;;;;;;;;;;;;22.11;49.59;95080.19;2036452;29;1074;-50
2022/06/24 04:31:35;;;;;;;;;;;;;;;22.14;49.67;95076.28;2036372;29;1361;-50
2022/06/24 04:32:38;;;;;;;;;;;;;;;22.18;49.42;95085.47;2041521;29;1057;-50
2022/06/24 04:33:40;;;;;;;;;;;;;;;22.22;49.29;95083.19;2041331;29;1125;-52
2022/06/24 04:34:43;;;;;;;;;;;;;;;22.32;49.25;95088.84;2040286;29;1046;-48
2022/06/24 04:35:46;;;;;;;;;;;;;;;22.41;49.05;95092.06;2041439;29;987;-49
2022/06/24 04:36:47;;;;;;;;;;;;;;;22.46;48.83;95093.03;2041404;29;1037;-47
2022/06/24 04:37:50;;;;;;;;;;;;;;;22.50;48.67;95096.91;2041276;29;1121;-50
2022/06/24 04:38:52;;;;;;;;;;;;;;;22.56;48.56;95097.88;2041440;29;1332;-48
2022/06/24 04:39:57;;;;;;;;;;;;;;;22.61;48.22;95099.91;2041498;29;1106;-54
2022/06/24 04:40:59;;;;;;;;;;;;;;;22.50;48.15;95096.91;2040680;29;1081;-52
2022/06/24 04:42:02;;;;;;;;;;;;;;;22.32;48.22;95091.53;2036319;29;1060;-49
2022/06/24 04:43:04;;;;;;;;;;;;;;;22.13;48.54;95088.00;2036302;29;1230;-53
2022/06/24 04:44:06;;;;;;;;;;;;;;;21.91;48.55;95092.91;2041084;29;1015;-49
2022/06/24 04:45:09;;;;;;;;;;;;;;;21.78;49.23;95098.34;2041013;29;1987;-50
2022/06/24 04:46:13;;;;;;;;;;;;;;;21.85;49.08;95102.63;2040915;29;1121;-50
2022/06/24 04:47:15;;;;;;;;;;;;;;;21.78;49.36;95112.53;2040669;29;1168;-50
2022/06/24 04:48:18;;;;;;;;;;;;;;;21.80;49.48;95109.66;2040856;29;1177;-54
2022/06/24 04:49:20;;;;;;;;;;;;;;;21.79;49.38;95110.66;2040827;29;1164;-49
2022/06/24 04:50:23;;;;;;;;;;;;;;;21.77;48.98;95118.94;2040856;29;1117;-48
2022/06/24 04:51:27;;;;;;;;;;;;;;;21.71;49.33;95108.25;2041080;29;1086;-50
2022/06/24 04:52:30;;;;;;;;;;;;;;;21.71;49.39;95111.75;2041074;29;1090;-50
2022/06/24 04:53:34;;;;;;;;;;;;;;;21.75;49.19;95104.94;2035931;29;1567;-51
2022/06/24 04:54:35;;;;;;;;;;;;;;;21.74;49.25;95099.78;2037663;29;1156;-50
2022/06/24 04:55:38;;;;;;;;;;;;;;;21.74;49.32;95105.16;2041213;29;1305;-52
2022/06/24 04:56:40;;;;;;;;;;;;;;;21.72;49.46;95101.88;2041535;29;1061;-51
2022/06/24 04:57:43;;;;;;;;;;;;;;;21.76;49.35;95100.41;2041491;29;1172;-49
2022/06/24 04:58:44;;;;;;;;;;;;;;;21.77;49.21;95104.72;2041591;29;1284;-58
2022/06/24 04:59:47;;;;;;;;;;;;;;;21.75;49.48;95102.28;2041745;29;1023;-50
2022/06/24 05:00:49;;;;;;;;;;;;;;;21.74;49.16;95100.63;2041320;29;1121;-49
2022/06/24 05:01:53;;;;;;;;;;;;;;;21.75;49.36;95101.44;2041324;29;1988;-49
2022/06/24 05:02:55;;;;;;;;;;;;;;;21.74;49.18;95099.78;2041639;29;1224;-46
2022/06/24 05:04:00;;;;;;;;;;;;;;;21.74;49.12;95107.81;2041826;29;1077;-52
2022/06/24 05:05:03;;;;;;;;;;;;;;;21.77;49.35;95107.38;2033327;29;1993;-50
2022/06/24 05:06:05;;;;;;;;;;;;;;;21.77;49.25;95112.72;2041434;29;1140;-47
2022/06/24 05:07:08;;;;;;;;;;;;;;;21.78;49.29;95109.84;2041525;29;1098;-51
2022/06/24 05:08:10;;;;;;;;;;;;;;;21.79;49.06;95108.81;2041704;29;1061;-52
2022/06/24 05:09:12;;;;;;;;;;;;;;;21.77;49.23;95107.38;2041418;29;987;-50
2022/06/24 05:10:14;;;;;;;;;;;;;;;21.80;49.13;95106.97;2041676;29;1045;-49
2022/06/24 05:11:17;;;;;;;;;;;;;;;21.76;48.99;95108.44;2041469;29;1093;-50
2022/06/24 05:12:20;;;;;;;;;;;;;;;21.67;48.98;95102.53;2041481;29;1607;-52
2022/06/24 05:13:21;;;;;;;;;;;;;;;21.67;49.10;95110.56;2041549;29;1105;-50
2022/06/24 05:14:24;;;;;;;;;;;;;;;21.68;49.00;95102.31;2041646;29;1030;-47
2022/06/24 05:15:26;;;;;;;;;;;;;;;21.66;49.02;95115.09;2041723;29;1070;-50
2022/06/24 05:16:30;;;;;;;;;;;;;;;21.64;49.47;95114.47;2031894;29;1159;-50
2022/06/24 05:17:43;;;;;;;;;;;;;;;21.58;49.81;95110.00;2041314;29;1109;-49
2022/06/24 05:18:45;;;;;;;;;;;;;;;21.64;49.55;95111.78;2041455;29;1105;-51
2022/06/24 05:19:47;;;;;;;;;;;;;;;21.67;49.30;95116.72;2041309;29;1353;-49
2022/06/24 05:20:49;;;;;;;;;;;;;;;21.71;49.26;95110.94;2041535;29;1500;-53
2022/06/24 05:21:52;;;;;;;;;;;;;;;21.67;49.16;95118.56;2041286;29;1182;-49
2022/06/24 05:22:54;;;;;;;;;;;;;;;21.67;49.41;95121.25;2041635;29;1037;-51
2022/06/24 05:23:57;;;;;;;;;;;;;;;21.57;49.47;95124.41;2041210;29;1098;-49
2022/06/24 05:25:01;;;;;;;;;;;;;;;21.61;49.43;95122.13;2041511;29;1110;-51
2022/06/24 05:26:03;;;;;;;;;;;;;;;21.71;49.34;95124.31;2041489;29;1981;-50
2022/06/24 05:27:06;;;;;;;;;;;;;;;21.76;49.75;95127.16;2037726;29;1098;-54
2022/06/24 05:28:08;;;;;;;;;;;;;;;21.79;49.39;95122.19;2036585;29;1542;-52
2022/06/24 05:29:11;;;;;;;;;;;;;;;21.80;49.43;95120.34;2041556;29;1022;-47
2022/06/24 05:30:13;;;;;;;;;;;;;;;21.85;49.02;95121.34;2041533;29;1173;-51
2022/06/24 05:31:16;;;;;;;;;;;;;;;21.82;49.24;95123.59;2040920;29;1049;-48
2022/06/24 05:32:18;;;;;;;;;;;;;;;21.81;49.53;95128.16;2041359;29;1070;-48
2022/06/24 05:33:22;;;;;;;;;;;;;;;21.86;49.43;95130.19;2041403;29;1102;-48
2022/06/24 05:34:25;;;;;;;;;;;;;;;21.89;49.42;95129.75;2041362;29;1065;-51
2022/06/24 05:35:27;;;;;;;;;;;;;;;21.88;49.54;95138.78;2041481;29;1993;-48
2022/06/24 05:36:30;;;;;;;;;;;;;;;21.89;49.44;95137.78;2041545;29;1013;-49
2022/06/24 05:37:32;;;;;;;;;;;;;;;21.86;49.64;95144.38;2041514;29;1046;-50
2022/06/24 05:38:34;;;;;;;;;;;;;;;21.86;49.66;95147.03;2036325;29;1135;-49
2022/06/24 05:39:36;;;;;;;;;;;;;;;21.89;49.47;95135.91;2036700;29;1050;-50